Time;durP1;ratioP1;P1;durP2;ratioP2;P2;SDS_P1;SDS_P2;PMS_P1;PMS_P2;Temp;Humidity;BMP_temperature;BMP_pressure;BME280_temperature;BME280_humidity;BME280_pressure;Samples;Min_cycle;Max_cycle;Signal;HPM_P1;HPM_P2
2023/05/11 00:01:04;;;;;;;101.45;5.72;;;;;;;10.28;50.15;95293.31;4974018;28;20023;-78
2023/05/11 00:03:30;;;;;;;46.15;5.45;;;;;;;10.25;50.23;95296.31;4958403;28;20027;-78
2023/05/11 00:05:55;;;;;;;34.50;5.93;;;;;;;10.26;50.37;95291.84;4975703;28;20049;-79
2023/05/11 00:08:21;;;;;;;175.13;7.28;;;;;;;10.31;50.34;95292.94;4953532;28;20448;-78
2023/05/11 00:10:47;;;;;;;174.38;8.20;;;;;;;10.32;50.50;95294.56;4965364;28;20067;-78
2023/05/11 00:13:12;;;;;;;172.82;8.27;;;;;;;10.22;51.15;95299.34;4973033;28;20045;-79
2023/05/11 00:15:38;;;;;;;360.88;10.88;;;;;;;10.10;51.65;95291.81;4972823;28;20023;-79
2023/05/11 00:18:03;;;;;;;348.90;9.85;;;;;;;9.92;52.29;95294.81;4972170;28;20047;-78
2023/05/11 00:20:29;;;;;;;344.23;10.07;;;;;;;10.07;52.18;95291.38;4959800;28;20077;-78
2023/05/11 00:22:54;;;;;;;421.80;10.82;;;;;;;9.94;52.58;95286.66;4963901;28;20401;-78
2023/05/11 00:25:19;;;;;;;113.07;6.18;;;;;;;10.18;52.30;95282.09;4971260;28;20031;-78
2023/05/11 00:27:45;;;;;;;347.95;9.18;;;;;;;10.43;51.35;95274.66;4957939;28;20564;-78
2023/05/11 00:30:12;;;;;;;209.50;8.23;;;;;;;10.52;51.51;95285.19;4974667;28;20078;-78
2023/05/11 00:32:37;;;;;;;304.40;8.63;;;;;;;10.61;51.13;95284.09;4957904;28;20003;-79
2023/05/11 00:35:03;;;;;;;385.48;10.80;;;;;;;10.55;51.31;95276.84;4971119;28;20070;-79
2023/05/11 00:37:29;;;;;;;182.68;8.25;;;;;;;10.55;51.59;95276.84;4957917;28;20042;-79
2023/05/11 00:39:54;;;;;;;92.65;7.60;;;;;;;10.58;51.47;95279.94;4977908;28;20042;-79
2023/05/11 00:42:19;;;;;;;144.52;8.77;;;;;;;10.62;51.50;95280.41;4976199;28;20045;-79
2023/05/11 00:44:46;;;;;;;53.85;6.80;;;;;;;10.69;51.61;95280.47;4997734;28;20049;-78
2023/05/11 00:47:11;;;;;;;58.70;6.25;;;;;;;10.85;51.43;95284.78;4995965;28;20035;-79
2023/05/11 00:49:37;;;;;;;221.13;10.80;;;;;;;10.38;51.56;95281.53;4974674;28;20037;-79
2023/05/11 00:52:03;;;;;;;132.30;9.43;;;;;;;9.93;53.48;95277.84;4980558;28;20033;-79
2023/05/11 00:54:29;;;;;;;115.05;8.85;;;;;;;10.06;53.04;95271.06;4945804;28;20110;-79
2023/05/11 00:56:55;;;;;;;59.78;9.77;;;;;;;10.08;52.99;95266.41;4962591;28;20173;-79
2023/05/11 00:59:20;;;;;;;33.65;8.50;;;;;;;9.70;53.53;95269.94;4978573;28;20023;-79
2023/05/11 01:01:46;;;;;;;41.40;6.90;;;;;;;9.58;53.85;95272.19;4988708;23;20043;-79
2023/05/11 01:04:11;;;;;;;12.55;6.80;;;;;;;9.26;55.01;95276.78;4962444;28;20109;-80
2023/05/11 01:07:01;;;;;;;12.05;7.93;;;;;;;8.97;56.08;95271.16;4978272;28;20049;-80
2023/05/11 01:10:05;;;;;;;27.13;7.70;;;;;;;8.94;56.68;95269.66;4982425;28;20491;-80
2023/05/11 01:12:51;;;;;;;49.80;7.47;;;;;;;9.15;55.53;95273.53;5002826;28;20026;-81
2023/05/11 01:15:26;;;;;;;27.63;7.60;;;;;;;9.32;55.29;95282.19;4983316;28;20534;-80
2023/05/11 01:18:23;;;;;;;18.50;6.50;;;;;;;9.48;54.73;95277.75;4966256;28;20781;-81
2023/05/11 01:20:49;;;;;;;33.03;7.00;;;;;;;9.24;55.55;95281.47;4981222;28;20042;-80
2023/05/11 01:23:32;;;;;;;290.80;9.48;;;;;;;8.85;56.86;95285.81;4993938;28;20018;-81
2023/05/11 01:26:34;;;;;;;129.52;7.28;;;;;;;8.91;56.70;95282.47;4988268;28;20034;-81
2023/05/11 01:29:36;;;;;;;70.38;6.40;;;;;;;8.88;57.16;95280.97;4981494;28;20378;-80
2023/05/11 01:32:04;;;;;;;112.05;5.80;;;;;;;8.44;58.54;95287.69;4983656;28;20500;-81
2023/05/11 01:34:32;;;;;;;19.23;3.80;;;;;;;8.35;58.35;95288.72;4982497;28;20030;-81
2023/05/11 01:37:00;;;;;;;69.07;6.35;;;;;;;8.04;59.89;95288.50;4955044;28;20618;-80
2023/05/11 01:39:29;;;;;;;6.47;4.60;;;;;;;8.41;57.61;95296.84;4987799;28;20091;-81
2023/05/11 01:41:54;;;;;;;7.47;5.00;;;;;;;7.57;60.24;95294.50;4978348;28;20067;-81
2023/05/11 01:44:20;;;;;;;5.65;4.30;;;;;;;7.37;60.43;95297.47;4981242;28;20244;-81
2023/05/11 01:46:45;;;;;;;8.40;4.78;;;;;;;6.66;62.43;95295.25;4985654;28;20084;-81
2023/05/11 01:49:11;;;;;;;4.32;3.83;;;;;;;7.13;60.59;95292.03;4978738;28;20065;-81
2023/05/11 01:51:36;;;;;;;5.50;3.53;;;;;;;7.34;59.43;95287.25;4962884;28;20018;-81
2023/05/11 01:54:02;;;;;;;4.20;3.38;;;;;;;6.91;60.42;95293.50;4999355;28;20065;-81
2023/05/11 01:56:28;;;;;;;6.50;3.90;;;;;;;7.08;59.70;95291.69;4979154;28;20049;-81
2023/05/11 01:58:54;;;;;;;4.05;3.65;;;;;;;7.31;58.92;95290.22;4981989;28;20038;-81
2023/05/11 02:01:19;;;;;;;4.57;3.70;;;;;;;6.96;60.21;95291.19;4964717;28;20553;-80
2023/05/11 02:03:45;;;;;;;6.45;4.75;;;;;;;6.90;60.19;95291.81;4964246;28;20081;-80
2023/05/11 02:06:10;;;;;;;10.85;4.50;;;;;;;7.05;59.78;95285.88;4979710;28;20064;-80
2023/05/11 02:08:37;;;;;;;6.57;4.97;;;;;;;7.30;58.59;95284.09;4962753;28;20446;-81
2023/05/11 02:11:02;;;;;;;5.47;4.30;;;;;;;6.97;59.32;95287.53;4961325;28;20143;-80
2023/05/11 02:13:27;;;;;;;6.82;4.10;;;;;;;7.08;58.87;95291.69;4961737;28;20034;-80
2023/05/11 02:15:55;;;;;;;5.07;4.32;;;;;;;7.28;58.39;95284.25;4978246;28;20045;-80
2023/05/11 02:18:20;;;;;;;5.88;4.53;;;;;;;7.26;58.08;95288.06;4962429;28;20030;-80
2023/05/11 02:20:46;;;;;;;6.15;3.55;;;;;;;7.76;56.60;95286.19;4978087;28;20044;-79
2023/05/11 02:23:11;;;;;;;3.92;3.50;;;;;;;7.98;55.37;95290.97;4963073;28;20064;-79
2023/05/11 02:25:37;;;;;;;7.28;5.03;;;;;;;7.54;56.27;95291.19;4977844;28;20038;-79
2023/05/11 02:28:02;;;;;;;6.75;5.60;;;;;;;7.84;55.89;95284.56;4994730;28;20057;-79
2023/05/11 02:30:28;;;;;;;6.72;4.22;;;;;;;7.51;55.80;95283.59;4977462;28;20558;-79
2023/05/11 02:32:54;;;;;;;6.55;4.95;;;;;;;7.40;56.97;95276.81;4960530;28;20022;-79
2023/05/11 02:35:22;;;;;;;6.57;4.95;;;;;;;7.02;59.11;95279.94;4975387;28;20081;-79
2023/05/11 02:37:47;;;;;;;7.18;4.20;;;;;;;7.61;57.69;95282.56;4959946;28;20497;-79
2023/05/11 02:40:15;;;;;;;6.65;4.55;;;;;;;7.56;56.27;95284.91;4992993;28;20041;-79
2023/05/11 02:42:41;;;;;;;5.07;3.80;;;;;;;8.00;54.39;95275.75;4976049;28;20104;-79
2023/05/11 02:45:07;;;;;;;5.65;3.55;;;;;;;7.50;54.75;95278.44;4960677;28;20034;-79
2023/05/11 02:47:38;;;;;;;7.07;4.57;;;;;;;7.25;56.67;95283.75;4976743;28;20117;-79
2023/05/11 02:50:04;;;;;;;6.88;3.92;;;;;;;7.60;56.92;95281.75;4976291;28;20088;-79
2023/05/11 02:52:30;;;;;;;4.40;3.35;;;;;;;7.93;54.86;95283.56;4976271;28;20038;-79
2023/05/11 02:54:55;;;;;;;5.18;3.60;;;;;;;8.05;54.20;95281.34;4959779;28;20034;-79
2023/05/11 02:57:21;;;;;;;5.32;3.67;;;;;;;8.04;53.51;95277.06;4974989;28;20034;-78
2023/05/11 02:59:47;;;;;;;7.00;4.60;;;;;;;7.61;52.33;95277.28;4976011;28;20026;-79
2023/05/11 03:02:12;;;;;;;5.25;4.50;;;;;;;6.47;56.32;95270.69;4972474;28;20047;-79
2023/05/11 03:04:38;;;;;;;5.88;4.60;;;;;;;6.69;57.32;95268.47;4958481;28;20423;-79
2023/05/11 03:07:04;;;;;;;6.90;5.00;;;;;;;6.12;59.42;95276.00;4977637;28;20481;-79
2023/05/11 03:09:30;;;;;;;6.70;4.60;;;;;;;5.70;59.18;95274.97;4959662;28;20068;-79
2023/05/11 03:11:55;;;;;;;7.18;4.40;;;;;;;5.98;59.60;95265.06;4960256;28;20397;-79
2023/05/11 03:14:21;;;;;;;7.00;4.70;;;;;;;6.60;58.04;95270.28;4976074;28;20038;-79
2023/05/11 03:16:46;;;;;;;4.82;4.18;;;;;;;6.86;56.91;95266.66;4976825;28;20034;-78
2023/05/11 03:19:12;;;;;;;6.80;4.53;;;;;;;6.98;57.54;95272.50;4959345;28;20093;-79
2023/05/11 03:21:37;;;;;;;6.10;4.03;;;;;;;7.18;54.64;95266.88;4975306;28;20050;-79
2023/05/11 03:24:05;;;;;;;5.78;4.63;;;;;;;7.15;57.35;95260.91;4975981;28;20030;-79
2023/05/11 03:26:30;;;;;;;4.70;4.17;;;;;;;7.59;54.98;95266.88;4975537;28;20038;-79
2023/05/11 03:28:56;;;;;;;5.70;4.43;;;;;;;7.70;54.07;95264.84;4975030;28;20281;-79
2023/05/11 03:31:21;;;;;;;6.88;4.95;;;;;;;7.56;53.49;95263.72;4975668;28;20434;-79
2023/05/11 03:33:47;;;;;;;7.72;4.97;;;;;;;7.39;54.17;95267.19;4973764;28;20245;-79
2023/05/11 03:36:12;;;;;;;20.92;5.78;;;;;;;7.45;54.85;95265.69;4975478;28;20389;-79
2023/05/11 03:38:37;;;;;;;59.60;6.22;;;;;;;7.21;56.32;95267.38;4991492;28;20490;-78
2023/05/11 03:41:03;;;;;;;53.33;5.60;;;;;;;7.43;56.23;95269.50;4959324;28;20042;-79
2023/05/11 03:43:29;;;;;;;57.53;5.40;;;;;;;7.67;54.69;95260.72;4975667;28;20027;-79
2023/05/11 03:45:54;;;;;;;28.73;5.70;;;;;;;7.64;55.64;95261.03;4975406;28;20106;-79
2023/05/11 03:48:21;;;;;;;34.03;5.97;;;;;;;7.41;55.36;95259.91;4975553;28;20093;-79
2023/05/11 03:50:46;;;;;;;19.48;5.28;;;;;;;7.21;56.33;95262.06;4959390;28;20771;-79
2023/05/11 03:53:12;;;;;;;20.08;5.70;;;;;;;7.23;56.44;95253.97;4958837;28;20031;-79
2023/05/11 03:55:37;;;;;;;37.25;5.85;;;;;;;7.34;57.51;95258.13;4943433;28;20026;-79
2023/05/11 03:58:09;;;;;;;127.45;8.10;;;;;;;6.69;57.58;95256.06;4959287;28;20049;-79
2023/05/11 04:00:38;;;;;;;133.85;7.07;;;;;;;7.02;57.94;95258.78;4961671;28;20034;-79
2023/05/11 04:03:05;;;;;;;93.55;6.55;;;;;;;7.12;59.21;95252.47;4961255;28;20057;-79
2023/05/11 04:05:30;;;;;;;165.57;7.40;;;;;;;7.32;57.43;95260.09;4978249;28;20093;-80
2023/05/11 04:07:56;;;;;;;153.02;7.82;;;;;;;7.50;58.64;95255.44;4980096;28;20038;-80
2023/05/11 04:10:22;;;;;;;164.90;8.02;;;;;;;7.83;56.86;95257.25;4978299;28;20408;-80
2023/05/11 04:12:47;;;;;;;110.13;9.02;;;;;;;7.68;57.35;95261.56;4979528;28;20042;-79
2023/05/11 04:15:13;;;;;;;60.17;7.10;;;;;;;7.84;57.07;95266.00;4981024;28;20027;-80
2023/05/11 04:17:38;;;;;;;76.07;6.70;;;;;;;7.97;57.55;95265.47;4984602;28;20097;-80
2023/05/11 04:20:04;;;;;;;220.15;10.65;;;;;;;7.45;57.73;95260.41;4986164;28;20683;-80
2023/05/11 04:22:30;;;;;;;142.32;7.63;;;;;;;7.91;58.44;95266.97;4986293;28;20038;-80
2023/05/11 04:24:55;;;;;;;191.10;9.32;;;;;;;7.52;58.39;95271.97;4986477;28;20525;-80
2023/05/11 04:27:20;;;;;;;139.85;7.57;;;;;;;8.04;58.08;95267.28;4970679;28;20031;-80
2023/05/11 04:29:47;;;;;;;122.40;7.45;;;;;;;8.06;57.87;95275.06;4963838;28;20042;-80
2023/05/11 04:32:12;;;;;;;94.47;7.40;;;;;;;8.15;57.55;95270.56;4982144;28;20084;-80
2023/05/11 04:34:38;;;;;;;345.63;12.75;;;;;;;7.69;58.35;95263.19;4981031;28;20336;-80
2023/05/11 04:37:06;;;;;;;157.98;8.75;;;;;;;7.91;58.48;95269.63;4967264;28;20080;-80
2023/05/11 04:39:32;;;;;;;363.10;11.40;;;;;;;7.58;59.22;95273.13;4984777;28;20521;-80
2023/05/11 04:41:58;;;;;;;286.15;10.63;;;;;;;8.26;56.93;95269.38;4982298;28;20065;-80
2023/05/11 04:44:24;;;;;;;200.57;10.07;;;;;;;8.62;56.33;95265.38;4964597;28;20040;-80
2023/05/11 04:46:52;;;;;;;162.05;9.98;;;;;;;8.69;55.61;95264.53;4982039;28;20042;-80
2023/05/11 04:49:18;;;;;;;131.70;9.75;;;;;;;8.65;56.10;95273.00;4948986;28;20026;-80
2023/05/11 04:51:43;;;;;;;51.55;8.13;;;;;;;8.90;55.68;95270.19;4982752;28;20501;-80
2023/05/11 04:54:09;;;;;;;87.55;9.57;;;;;;;9.01;54.86;95261.84;4967115;28;20044;-80
2023/05/11 04:56:39;;;;;;;29.48;6.68;;;;;;;9.10;54.82;95272.41;4983681;28;20306;-80
2023/05/11 04:59:04;;;;;;;85.47;8.60;;;;;;;9.49;53.58;95276.78;4998074;28;20129;-81
2023/05/11 05:01:30;;;;;;;52.47;8.88;;;;;;;9.61;53.27;95274.50;4983057;28;20469;-80
2023/05/11 05:03:55;;;;;;;51.42;9.65;;;;;;;9.19;54.30;95274.03;4983989;28;20058;-80
2023/05/11 05:06:21;;;;;;;73.35;10.68;;;;;;;9.00;55.09;95270.81;4982749;28;20034;-80
2023/05/11 05:08:46;;;;;;;50.78;11.30;;;;;;;8.75;54.95;95283.41;4984605;28;20439;-79
2023/05/11 05:11:11;;;;;;;17.02;10.18;;;;;;;8.73;55.72;95275.59;4982116;28;20113;-81
2023/05/11 05:13:37;;;;;;;19.80;11.20;;;;;;;8.17;56.79;95287.94;4983992;28;20035;-80
2023/05/11 05:16:02;;;;;;;16.42;10.68;;;;;;;8.61;55.88;95288.44;4970050;28;20030;-80
2023/05/11 05:18:28;;;;;;;16.48;10.13;;;;;;;8.12;56.73;95284.97;4985802;28;20277;-80
2023/05/11 05:20:53;;;;;;;15.45;10.48;;;;;;;7.86;58.19;95287.88;4983887;28;20080;-80
2023/05/11 05:23:19;;;;;;;16.00;10.93;;;;;;;8.47;56.09;95291.81;4986903;28;20351;-80
2023/05/11 05:25:44;;;;;;;24.38;10.70;;;;;;;8.29;57.33;95293.72;4987120;28;20046;-81
2023/05/11 05:28:10;;;;;;;17.80;9.63;;;;;;;8.86;55.86;95290.13;4983296;28;20109;-80
2023/05/11 05:30:36;;;;;;;24.67;10.32;;;;;;;9.48;53.33;95285.72;4983073;28;20451;-80
2023/05/11 05:33:01;;;;;;;24.42;8.45;;;;;;;9.38;53.59;95301.13;4981737;28;20045;-80
2023/05/11 05:35:27;;;;;;;17.92;7.65;;;;;;;9.37;53.97;95302.09;4962169;28;20128;-81
2023/05/11 05:37:52;;;;;;;9.88;7.38;;;;;;;9.22;54.41;95305.53;4983751;28;20030;-80
2023/05/11 05:40:17;;;;;;;34.28;10.13;;;;;;;9.69;53.29;95306.31;4982953;28;20034;-80
2023/05/11 05:42:43;;;;;;;19.23;9.65;;;;;;;9.69;53.65;95300.19;4985588;28;20661;-81
2023/05/11 05:45:09;;;;;;;11.30;8.70;;;;;;;10.12;52.30;95304.09;4987377;28;20061;-80
2023/05/11 05:47:34;;;;;;;14.18;9.23;;;;;;;9.93;52.41;95309.75;4986165;28;20045;-81
2023/05/11 05:50:00;;;;;;;13.40;9.30;;;;;;;9.80;52.85;95318.34;4982610;28;20274;-81
2023/05/11 05:52:25;;;;;;;15.35;8.23;;;;;;;9.05;54.70;95321.56;4986322;28;20110;-81
2023/05/11 05:54:50;;;;;;;51.75;8.63;;;;;;;9.26;54.52;95314.81;4986450;28;20103;-80
2023/05/11 05:57:16;;;;;;;21.30;9.80;;;;;;;9.70;53.81;95317.78;4984854;28;20034;-80
2023/05/11 05:59:41;;;;;;;24.70;8.77;;;;;;;10.23;51.49;95316.94;4980630;28;20046;-81
2023/05/11 06:02:07;;;;;;;70.25;9.88;;;;;;;9.88;52.45;95316.59;4981013;28;20491;-81
2023/05/11 06:04:32;;;;;;;16.08;8.23;;;;;;;8.94;55.19;95330.72;4981451;28;20045;-81
2023/05/11 06:06:59;;;;;;;41.45;7.82;;;;;;;9.20;54.73;95334.09;4980631;28;20042;-81
2023/05/11 06:09:24;;;;;;;18.23;6.72;;;;;;;9.51;54.03;95327.06;4978025;28;20027;-81
2023/05/11 06:11:52;;;;;;;10.80;8.27;;;;;;;8.42;56.75;95337.44;4981232;28;20031;-81
2023/05/11 06:14:18;;;;;;;11.02;7.22;;;;;;;8.32;57.11;95336.81;4980176;28;20030;-81
2023/05/11 06:16:43;;;;;;;17.15;8.63;;;;;;;8.42;56.69;95335.63;4982410;28;20037;-80
2023/05/11 06:19:09;;;;;;;36.35;7.20;;;;;;;8.27;57.33;95334.69;4965581;28;20511;-81
2023/05/11 06:21:35;;;;;;;18.02;8.10;;;;;;;8.14;57.52;95333.38;4999066;28;20439;-81
2023/05/11 06:24:00;;;;;;;57.80;9.98;;;;;;;8.42;56.77;95337.44;4982031;28;20061;-81
2023/05/11 06:26:27;;;;;;;31.02;8.63;;;;;;;8.61;56.61;95336.22;4997835;28;20120;-81
2023/05/11 06:28:52;;;;;;;29.55;8.68;;;;;;;8.76;56.42;95338.97;4981688;28;20472;-80
2023/05/11 06:31:18;;;;;;;14.57;7.43;;;;;;;8.75;56.00;95339.97;4978576;28;20034;-81
2023/05/11 06:33:43;;;;;;;47.15;8.02;;;;;;;8.93;55.29;95338.88;4994638;28;20042;-80
2023/05/11 06:36:09;;;;;;;74.60;8.38;;;;;;;9.26;54.98;95327.25;4971905;28;20022;-81
2023/05/11 06:38:35;;;;;;;17.02;7.13;;;;;;;8.84;55.87;95329.31;4994829;28;20156;-81
2023/05/11 06:41:00;;;;;;;36.85;7.15;;;;;;;8.89;55.44;95338.41;4978915;28;20030;-80
2023/05/11 06:43:25;;;;;;;27.55;7.00;;;;;;;8.32;57.79;95339.47;4991062;28;20557;-62
2023/05/11 06:45:51;;;;;;;356.33;14.93;;;;;;;8.67;55.86;95332.03;4975715;28;20134;-62
2023/05/11 06:48:16;;;;;;;56.60;7.47;;;;;;;9.08;55.29;95333.69;4969413;28;20297;-62
2023/05/11 06:50:42;;;;;;;49.92;7.75;;;;;;;9.48;54.38;95330.91;4972336;28;20034;-62
2023/05/11 06:53:09;;;;;;;37.60;7.35;;;;;;;8.95;55.56;95337.72;4970996;28;20061;-63
2023/05/11 06:55:34;;;;;;;13.25;6.72;;;;;;;9.00;55.66;95337.19;4973148;28;20047;-62
2023/05/11 06:58:00;;;;;;;17.10;6.60;;;;;;;8.33;57.05;95336.63;4970587;28;20039;-62
2023/05/11 07:00:25;;;;;;;24.20;6.68;;;;;;;8.53;56.64;95342.38;4973219;28;20523;-62
2023/05/11 07:02:51;;;;;;;19.10;7.13;;;;;;;8.90;56.03;95340.06;4970700;28;20046;-62
2023/05/11 07:05:17;;;;;;;21.65;7.20;;;;;;;9.35;55.43;95336.00;4972170;28;20049;-62
2023/05/11 07:07:42;;;;;;;8.43;6.18;;;;;;;8.49;56.02;95346.38;4971745;28;20037;-62
2023/05/11 07:10:08;;;;;;;12.55;5.97;;;;;;;8.01;57.24;95352.47;4971865;28;20063;-62
2023/05/11 07:12:33;;;;;;;8.88;6.13;;;;;;;7.82;58.11;95343.03;4969087;28;20068;-62
2023/05/11 07:14:59;;;;;;;9.90;6.30;;;;;;;7.62;59.06;95343.34;4967773;28;20391;-62
2023/05/11 07:17:24;;;;;;;9.00;5.95;;;;;;;7.45;59.44;95339.06;4968740;28;20034;-62
2023/05/11 07:19:53;;;;;;;12.10;7.35;;;;;;;7.76;59.13;95335.72;4966236;28;20034;-62
2023/05/11 07:22:19;;;;;;;8.55;7.10;;;;;;;7.79;58.81;95333.59;4963976;28;20085;-62
2023/05/11 07:24:44;;;;;;;12.60;7.75;;;;;;;8.49;56.84;95335.75;4968084;28;20275;-62
2023/05/11 07:27:10;;;;;;;12.23;8.13;;;;;;;8.32;57.95;95342.13;4972117;28;20030;-62
2023/05/11 07:29:35;;;;;;;11.32;7.57;;;;;;;8.14;58.08;95348.47;4974325;28;20570;-62
2023/05/11 07:32:01;;;;;;;14.40;9.35;;;;;;;8.30;58.21;95344.94;4972460;28;20517;-62
2023/05/11 07:34:26;;;;;;;14.27;11.02;;;;;;;8.36;57.75;95346.09;4971449;28;20050;-62
2023/05/11 07:36:52;;;;;;;22.08;10.40;;;;;;;8.60;57.11;95341.69;4969465;28;20037;-63
2023/05/11 07:39:18;;;;;;;17.80;11.55;;;;;;;8.67;56.92;95346.13;4972635;28;20113;-62
2023/05/11 07:41:43;;;;;;;18.23;11.15;;;;;;;8.64;57.02;95343.00;4972040;28;20119;-62
2023/05/11 07:44:09;;;;;;;17.25;12.45;;;;;;;9.18;56.32;95346.75;4972420;28;20026;-63
2023/05/11 07:46:34;;;;;;;18.70;15.90;;;;;;;9.36;54.19;95340.31;4972814;28;20046;-62
2023/05/11 07:49:00;;;;;;;16.15;12.88;;;;;;;9.10;54.80;95344.94;4968296;28;20402;-62
2023/05/11 07:51:26;;;;;;;11.73;8.65;;;;;;;9.44;53.41;95345.56;4972517;28;20416;-62
2023/05/11 07:53:51;;;;;;;18.45;13.93;;;;;;;9.57;53.74;95351.13;4974646;28;20035;-62
2023/05/11 07:56:16;;;;;;;18.17;14.55;;;;;;;9.68;53.19;95351.69;4973376;28;20035;-62
2023/05/11 07:58:42;;;;;;;21.58;16.70;;;;;;;9.75;53.09;95347.31;4974925;28;20057;-62
2023/05/11 08:01:07;;;;;;;22.70;14.55;;;;;;;10.00;52.62;95344.44;4974388;28;20049;-62
2023/05/11 08:03:33;;;;;;;17.70;10.32;;;;;;;9.51;53.77;95343.84;4971545;28;20035;-62
2023/05/11 08:05:58;;;;;;;28.38;21.25;;;;;;;9.97;52.85;95339.47;4973508;28;20511;-62
2023/05/11 08:08:24;;;;;;;13.57;10.23;;;;;;;10.08;52.33;95346.22;4975806;28;20035;-62
2023/05/11 08:10:50;;;;;;;23.10;17.60;;;;;;;10.32;51.71;95346.97;4975429;28;20092;-63
2023/05/11 08:13:17;;;;;;;15.82;10.63;;;;;;;10.16;51.44;95345.31;4972555;28;20423;-63
2023/05/11 08:15:42;;;;;;;19.55;14.05;;;;;;;10.28;51.55;95351.84;4975322;28;20569;-63
2023/05/11 08:18:08;;;;;;;17.05;11.38;;;;;;;10.06;51.41;95348.22;4975277;28;20194;-63
2023/05/11 08:20:33;;;;;;;25.20;17.98;;;;;;;10.57;50.68;95352.84;4972527;28;20030;-63
2023/05/11 08:22:59;;;;;;;22.27;16.55;;;;;;;10.92;49.74;95359.41;4974866;28;20062;-64
2023/05/11 08:25:24;;;;;;;26.00;17.75;;;;;;;10.13;51.73;95351.00;4973205;28;20034;-63
2023/05/11 08:27:49;;;;;;;24.23;18.42;;;;;;;10.33;52.17;95354.75;4976202;28;20034;-63
2023/05/11 08:30:15;;;;;;;14.38;10.00;;;;;;;10.13;51.27;95353.66;4974394;28;20046;-63
2023/05/11 08:32:41;;;;;;;18.98;12.10;;;;;;;9.46;53.31;95356.84;4974132;28;20394;-63
2023/05/11 08:35:06;;;;;;;23.60;16.25;;;;;;;9.17;54.19;95355.69;4975640;28;20042;-63
2023/05/11 08:37:32;;;;;;;14.27;10.05;;;;;;;9.04;55.08;95356.25;4975405;28;20464;-63
2023/05/11 08:39:57;;;;;;;24.13;16.65;;;;;;;9.19;54.55;95359.00;4975251;28;20439;-63
2023/05/11 08:42:23;;;;;;;22.70;15.95;;;;;;;9.05;54.84;95356.09;4975619;28;20049;-63
2023/05/11 08:44:48;;;;;;;24.70;15.73;;;;;;;9.02;55.68;95358.28;4974314;28;20100;-63
2023/05/11 08:47:14;;;;;;;29.80;19.42;;;;;;;9.26;54.75;95359.97;4972430;28;20258;-64
2023/05/11 08:49:40;;;;;;;12.68;7.63;;;;;;;9.66;53.68;95349.19;4973383;28;20103;-63
2023/05/11 08:52:05;;;;;;;32.80;22.80;;;;;;;9.88;53.18;95362.66;4972378;28;20038;-63
2023/05/11 08:54:31;;;;;;;11.38;8.05;;;;;;;10.34;51.70;95356.41;4974383;28;20035;-63
2023/05/11 08:56:57;;;;;;;9.40;7.18;;;;;;;9.76;52.50;95369.41;4974716;28;20319;-63
2023/05/11 08:59:26;;;;;;;12.93;8.95;;;;;;;9.80;52.91;95368.84;4972317;28;20057;-63
2023/05/11 09:01:51;;;;;;;19.45;14.70;;;;;;;10.20;52.06;95368.69;4976541;28;20447;-63
2023/05/11 09:04:17;;;;;;;12.93;8.20;;;;;;;10.06;52.20;95367.66;4977222;28;20037;-63
2023/05/11 09:06:42;;;;;;;8.43;5.88;;;;;;;9.70;52.67;95369.09;4960468;28;20427;-63
2023/05/11 09:09:08;;;;;;;10.43;7.78;;;;;;;9.91;52.94;95367.63;4974822;28;20538;-64
2023/05/11 09:11:34;;;;;;;10.85;8.15;;;;;;;9.91;52.34;95367.63;4976968;28;20541;-63
2023/05/11 09:13:59;;;;;;;12.68;8.70;;;;;;;9.95;52.32;95371.56;4977177;28;20053;-63
2023/05/11 09:16:25;;;;;;;24.52;17.67;;;;;;;10.50;51.48;95375.88;4978037;28;20437;-63
2023/05/11 09:18:51;;;;;;;15.15;12.00;;;;;;;10.70;50.87;95369.97;4978022;28;20403;-63
2023/05/11 09:21:17;;;;;;;12.05;8.50;;;;;;;10.66;50.74;95374.03;4975030;28;20125;-63
2023/05/11 09:23:42;;;;;;;15.10;11.35;;;;;;;10.63;50.76;95375.22;4979069;28;20202;-63
2023/05/11 09:26:20;;;;;;;24.08;16.80;;;;;;;10.49;51.46;95376.88;4977097;28;20381;-63
2023/05/11 09:28:59;;;;;;;9.70;7.37;;;;;;;10.39;50.59;95371.84;4976156;28;20064;-63
2023/05/11 09:31:34;;;;;;;11.13;8.45;;;;;;;9.80;52.50;95371.50;4977900;28;20112;-63
2023/05/11 09:34:18;;;;;;;12.70;9.55;;;;;;;9.76;53.07;95372.88;4976015;28;20159;-63
2023/05/11 09:36:54;;;;;;;19.05;14.98;;;;;;;9.73;53.06;95370.59;4977252;28;20041;-63
2023/05/11 09:39:29;;;;;;;13.07;10.10;;;;;;;9.43;54.47;95376.63;4977884;28;20626;-63
2023/05/11 09:42:14;;;;;;;11.07;9.25;;;;;;;10.15;52.65;95364.91;4976819;28;20046;-63
2023/05/11 09:44:42;;;;;;;11.68;8.88;;;;;;;10.07;52.42;95374.63;4977879;28;20138;-63
2023/05/11 09:47:12;;;;;;;12.55;9.73;;;;;;;10.19;51.73;95379.50;4977768;28;20341;-63
2023/05/11 09:49:42;;;;;;;17.83;11.65;;;;;;;9.63;53.41;95380.63;4977018;28;20038;-63
2023/05/11 09:52:09;;;;;;;15.40;10.48;;;;;;;9.80;53.25;95379.47;4978057;28;20038;-63
2023/05/11 09:54:49;;;;;;;13.45;9.82;;;;;;;10.27;51.62;95376.75;4976897;28;20470;-63
2023/05/11 09:57:28;;;;;;;12.43;8.90;;;;;;;10.47;50.49;95376.22;4975685;28;20504;-63
2023/05/11 09:59:53;;;;;;;11.88;9.27;;;;;;;9.94;52.59;95377.06;4977264;28;20243;-63
2023/05/11 10:02:28;;;;;;;16.80;9.68;;;;;;;9.80;53.10;95382.13;4976127;28;20419;-63
2023/05/11 10:04:55;;;;;;;16.02;10.30;;;;;;;9.50;54.35;95379.41;4975993;28;20342;-63
2023/05/11 10:07:27;;;;;;;13.30;9.55;;;;;;;9.15;56.18;95378.97;4977677;28;20359;-63
2023/05/11 10:09:54;;;;;;;13.48;9.90;;;;;;;9.68;54.15;95378.25;4975421;28;20122;-63
2023/05/11 10:12:20;;;;;;;14.23;9.50;;;;;;;9.48;54.29;95372.63;4978109;28;20318;-63
2023/05/11 10:14:46;;;;;;;13.05;9.48;;;;;;;9.49;54.18;95368.94;4976197;28;20387;-63
2023/05/11 10:17:11;;;;;;;15.85;11.00;;;;;;;9.28;54.22;95368.56;4960356;28;20034;-63
2023/05/11 10:19:37;;;;;;;11.82;8.35;;;;;;;9.02;54.90;95379.53;4973485;28;20023;-63
2023/05/11 10:22:04;;;;;;;14.60;10.18;;;;;;;9.19;55.53;95369.63;4974243;28;20042;-63
2023/05/11 10:24:30;;;;;;;15.32;10.45;;;;;;;9.41;54.41;95369.81;4959478;28;20053;-63
2023/05/11 10:26:56;;;;;;;14.82;9.88;;;;;;;9.13;55.86;95372.97;4977191;28;20371;-63
2023/05/11 10:29:21;;;;;;;16.23;10.60;;;;;;;9.41;55.60;95361.84;4975234;28;20128;-63
2023/05/11 10:31:47;;;;;;;15.48;10.30;;;;;;;9.33;54.96;95362.75;4976669;28;20042;-64
2023/05/11 10:34:12;;;;;;;13.45;9.20;;;;;;;9.16;55.39;95367.31;4974903;28;20041;-62
2023/05/11 10:36:38;;;;;;;14.68;9.82;;;;;;;9.17;55.34;95366.31;4959473;28;20034;-62
2023/05/11 10:39:03;;;;;;;14.80;10.27;;;;;;;9.68;53.93;95359.66;4976897;28;20101;-63
2023/05/11 10:41:40;;;;;;;12.73;9.23;;;;;;;9.59;54.09;95362.38;4972780;28;20042;-63
2023/05/11 10:44:18;;;;;;;15.40;10.45;;;;;;;9.11;55.20;95359.88;4972831;28;20470;-63
2023/05/11 10:47:13;;;;;;;12.95;9.57;;;;;;;9.16;55.34;95357.53;4973899;28;20569;-63
2023/05/11 10:49:58;;;;;;;11.05;8.23;;;;;;;9.37;54.42;95350.75;4971008;28;20039;-63
2023/05/11 10:52:51;;;;;;;14.30;10.13;;;;;;;10.35;51.83;95346.59;4974342;28;20477;-63
2023/05/11 10:55:44;;;;;;;14.52;10.05;;;;;;;10.67;51.82;95346.41;4973829;28;20129;-63
2023/05/11 10:58:13;;;;;;;12.32;9.15;;;;;;;11.45;49.66;95345.03;4974707;28;20054;-80
2023/05/11 11:00:52;;;;;;;12.45;9.27;;;;;;;12.23;47.21;95348.75;4959979;28;20054;-80
2023/05/11 11:03:18;;;;;;;13.07;9.38;;;;;;;12.65;46.40;95348.81;4976326;28;20055;-80
2023/05/11 11:05:44;;;;;;;14.25;9.48;;;;;;;13.00;45.23;95346.13;4942498;28;20116;-80
2023/05/11 11:08:09;;;;;;;9.95;7.97;;;;;;;13.52;43.58;95350.16;4978143;28;20051;-82
2023/05/11 11:10:36;;;;;;;12.32;8.60;;;;;;;13.31;44.25;95346.63;4958472;28;20499;-81
2023/05/11 11:13:08;;;;;;;8.63;7.28;;;;;;;13.89;42.62;95347.13;4991482;28;20313;-81
2023/05/11 11:15:55;;;;;;;10.57;8.00;;;;;;;13.56;43.80;95346.88;4989510;28;20427;-81
2023/05/11 11:18:25;;;;;;;9.25;7.28;;;;;;;13.94;42.52;95339.31;4975800;28;20050;-82
2023/05/11 11:20:51;;;;;;;10.23;7.78;;;;;;;13.93;42.29;95343.84;4974683;28;20034;-80
2023/05/11 11:23:39;;;;;;;9.43;7.53;;;;;;;13.64;42.99;95337.84;4959348;28;20350;-80
2023/05/11 11:26:05;;;;;;;12.98;7.97;;;;;;;13.10;43.63;95334.22;4975812;28;20570;-80
2023/05/11 11:29:01;;;;;;;9.05;7.07;;;;;;;13.52;42.36;95329.59;4975163;28;20038;-82
2023/05/11 11:31:28;;;;;;;8.45;6.60;;;;;;;13.00;44.53;95334.59;4974022;28;20054;-83